sensor_id;sensor_type;location;lat;lon;timestamp;P1;durP1;ratioP1;P2;durP2;ratioP2
9974;SDS011;5028;50.974;4.968;2023-01-19T00:01:53;13.57;;;11.93;;
9974;SDS011;5028;50.974;4.968;2023-01-19T00:04:21;13.60;;;12.27;;
9974;SDS011;5028;50.974;4.968;2023-01-19T00:07:04;14.27;;;12.87;;
9974;SDS011;5028;50.974;4.968;2023-01-19T00:09:35;14.80;;;12.13;;
9974;SDS011;5028;50.974;4.968;2023-01-19T00:12:10;13.10;;;11.80;;
9974;SDS011;5028;50.974;4.968;2023-01-19T00:14:39;13.53;;;12.13;;
9974;SDS011;5028;50.974;4.968;2023-01-19T00:17:14;13.00;;;11.73;;
9974;SDS011;5028;50.974;4.968;2023-01-19T00:19:43;15.80;;;12.90;;
9974;SDS011;5028;50.974;4.968;2023-01-19T00:22:18;13.47;;;11.73;;
9974;SDS011;5028;50.974;4.968;2023-01-19T00:24:48;14.43;;;13.03;;
9974;SDS011;5028;50.974;4.968;2023-01-19T00:27:23;15.13;;;12.37;;
9974;SDS011;5028;50.974;4.968;2023-01-19T00:29:51;17.00;;;12.43;;
9974;SDS011;5028;50.974;4.968;2023-01-19T00:32:26;14.30;;;12.07;;
9974;SDS011;5028;50.974;4.968;2023-01-19T00:34:55;14.20;;;12.37;;
9974;SDS011;5028;50.974;4.968;2023-01-19T00:37:30;14.80;;;12.17;;
9974;SDS011;5028;50.974;4.968;2023-01-19T00:40:00;13.83;;;12.33;;
9974;SDS011;5028;50.974;4.968;2023-01-19T00:42:35;15.47;;;13.30;;
9974;SDS011;5028;50.974;4.968;2023-01-19T00:45:07;13.63;;;12.17;;
9974;SDS011;5028;50.974;4.968;2023-01-19T00:47:43;13.13;;;11.47;;
9974;SDS011;5028;50.974;4.968;2023-01-19T00:50:14;15.03;;;12.77;;
9974;SDS011;5028;50.974;4.968;2023-01-19T00:52:50;15.33;;;12.43;;
9974;SDS011;5028;50.974;4.968;2023-01-19T00:55:22;15.77;;;12.90;;
9974;SDS011;5028;50.974;4.968;2023-01-19T00:57:56;15.03;;;12.53;;
9974;SDS011;5028;50.974;4.968;2023-01-19T01:00:25;15.37;;;12.30;;
9974;SDS011;5028;50.974;4.968;2023-01-19T01:03:00;15.60;;;12.43;;
9974;SDS011;5028;50.974;4.968;2023-01-19T01:05:29;14.87;;;12.67;;
9974;SDS011;5028;50.974;4.968;2023-01-19T01:08:18;13.33;;;12.03;;
9974;SDS011;5028;50.974;4.968;2023-01-19T01:10:48;14.03;;;12.63;;
9974;SDS011;5028;50.974;4.968;2023-01-19T01:13:23;13.97;;;11.80;;
9974;SDS011;5028;50.974;4.968;2023-01-19T01:15:54;18.23;;;12.37;;
9974;SDS011;5028;50.974;4.968;2023-01-19T01:18:29;16.17;;;12.10;;
9974;SDS011;5028;50.974;4.968;2023-01-19T01:21:01;14.43;;;11.80;;
9974;SDS011;5028;50.974;4.968;2023-01-19T01:23:37;14.60;;;11.50;;
9974;SDS011;5028;50.974;4.968;2023-01-19T01:26:07;15.43;;;12.30;;
9974;SDS011;5028;50.974;4.968;2023-01-19T01:28:42;14.40;;;11.50;;
9974;SDS011;5028;50.974;4.968;2023-01-19T01:31:11;14.00;;;12.50;;
9974;SDS011;5028;50.974;4.968;2023-01-19T01:33:46;15.47;;;11.97;;
9974;SDS011;5028;50.974;4.968;2023-01-19T01:36:14;13.20;;;11.90;;
9974;SDS011;5028;50.974;4.968;2023-01-19T01:38:50;13.47;;;12.07;;
9974;SDS011;5028;50.974;4.968;2023-01-19T01:41:20;16.00;;;12.30;;
9974;SDS011;5028;50.974;4.968;2023-01-19T01:43:56;15.63;;;12.37;;
9974;SDS011;5028;50.974;4.968;2023-01-19T01:46:28;15.47;;;12.43;;
9974;SDS011;5028;50.974;4.968;2023-01-19T01:49:04;14.77;;;11.93;;
9974;SDS011;5028;50.974;4.968;2023-01-19T01:51:38;12.57;;;11.27;;
9974;SDS011;5028;50.974;4.968;2023-01-19T01:54:18;14.47;;;12.47;;
9974;SDS011;5028;50.974;4.968;2023-01-19T01:56:52;14.30;;;12.37;;
9974;SDS011;5028;50.974;4.968;2023-01-19T01:59:30;15.03;;;12.30;;
9974;SDS011;5028;50.974;4.968;2023-01-19T02:02:06;18.53;;;12.50;;
9974;SDS011;5028;50.974;4.968;2023-01-19T02:05:01;15.63;;;12.93;;
9974;SDS011;5028;50.974;4.968;2023-01-19T02:07:45;16.10;;;12.97;;
9974;SDS011;5028;50.974;4.968;2023-01-19T02:10:42;18.17;;;13.03;;
9974;SDS011;5028;50.974;4.968;2023-01-19T02:13:30;14.33;;;12.30;;
9974;SDS011;5028;50.974;4.968;2023-01-19T02:16:08;17.10;;;12.83;;
9974;SDS011;5028;50.974;4.968;2023-01-19T02:18:38;17.23;;;12.17;;
9974;SDS011;5028;50.974;4.968;2023-01-19T02:21:16;14.00;;;12.10;;
9974;SDS011;5028;50.974;4.968;2023-01-19T02:23:49;15.93;;;12.23;;
9974;SDS011;5028;50.974;4.968;2023-01-19T02:26:27;17.27;;;13.33;;
9974;SDS011;5028;50.974;4.968;2023-01-19T02:28:59;14.50;;;11.03;;
9974;SDS011;5028;50.974;4.968;2023-01-19T02:31:36;16.40;;;12.70;;
9974;SDS011;5028;50.974;4.968;2023-01-19T02:34:07;16.13;;;12.60;;
9974;SDS011;5028;50.974;4.968;2023-01-19T02:36:46;14.10;;;12.60;;
9974;SDS011;5028;50.974;4.968;2023-01-19T02:39:21;16.90;;;12.83;;
9974;SDS011;5028;50.974;4.968;2023-01-19T02:42:02;19.07;;;13.63;;
9974;SDS011;5028;50.974;4.968;2023-01-19T02:44:34;18.63;;;13.43;;
9974;SDS011;5028;50.974;4.968;2023-01-19T02:47:11;15.23;;;12.67;;
9974;SDS011;5028;50.974;4.968;2023-01-19T02:49:40;18.13;;;12.73;;
9974;SDS011;5028;50.974;4.968;2023-01-19T02:52:16;16.07;;;12.87;;
9974;SDS011;5028;50.974;4.968;2023-01-19T02:54:48;15.90;;;12.70;;
9974;SDS011;5028;50.974;4.968;2023-01-19T03:00:27;15.37;;;11.27;;
9974;SDS011;5028;50.974;4.968;2023-01-19T03:03:12;15.13;;;12.77;;
9974;SDS011;5028;50.974;4.968;2023-01-19T03:05:52;14.33;;;12.23;;
9974;SDS011;5028;50.974;4.968;2023-01-19T03:08:46;16.73;;;12.03;;
9974;SDS011;5028;50.974;4.968;2023-01-19T03:11:21;15.03;;;11.87;;
9974;SDS011;5028;50.974;4.968;2023-01-19T03:14:02;17.03;;;12.03;;
9974;SDS011;5028;50.974;4.968;2023-01-19T03:16:38;15.97;;;11.80;;
9974;SDS011;5028;50.974;4.968;2023-01-19T03:19:17;12.97;;;11.47;;
9974;SDS011;5028;50.974;4.968;2023-01-19T03:21:56;17.73;;;11.70;;
9974;SDS011;5028;50.974;4.968;2023-01-19T03:24:47;18.40;;;11.57;;
9974;SDS011;5028;50.974;4.968;2023-01-19T03:27:27;23.37;;;12.37;;
9974;SDS011;5028;50.974;4.968;2023-01-19T03:29:59;17.37;;;12.17;;
9974;SDS011;5028;50.974;4.968;2023-01-19T03:32:40;17.90;;;13.30;;
9974;SDS011;5028;50.974;4.968;2023-01-19T03:35:12;19.67;;;13.50;;
9974;SDS011;5028;50.974;4.968;2023-01-19T03:37:49;17.63;;;13.97;;
9974;SDS011;5028;50.974;4.968;2023-01-19T03:40:23;16.47;;;13.00;;
9974;SDS011;5028;50.974;4.968;2023-01-19T03:43:04;19.40;;;13.87;;
9974;SDS011;5028;50.974;4.968;2023-01-19T03:45:33;17.70;;;14.23;;
9974;SDS011;5028;50.974;4.968;2023-01-19T03:48:11;22.23;;;15.10;;
9974;SDS011;5028;50.974;4.968;2023-01-19T03:50:40;20.73;;;15.07;;
9974;SDS011;5028;50.974;4.968;2023-01-19T03:53:15;17.60;;;13.87;;
9974;SDS011;5028;50.974;4.968;2023-01-19T03:55:45;19.67;;;14.50;;
9974;SDS011;5028;50.974;4.968;2023-01-19T03:58:23;23.57;;;15.70;;
9974;SDS011;5028;50.974;4.968;2023-01-19T04:00:51;30.13;;;16.23;;
9974;SDS011;5028;50.974;4.968;2023-01-19T04:03:26;27.57;;;15.50;;
9974;SDS011;5028;50.974;4.968;2023-01-19T04:05:55;22.03;;;15.33;;
9974;SDS011;5028;50.974;4.968;2023-01-19T04:08:43;22.97;;;15.60;;
9974;SDS011;5028;50.974;4.968;2023-01-19T04:11:11;23.03;;;15.30;;
9974;SDS011;5028;50.974;4.968;2023-01-19T04:13:48;20.83;;;15.17;;
9974;SDS011;5028;50.974;4.968;2023-01-19T04:16:16;22.67;;;15.63;;
9974;SDS011;5028;50.974;4.968;2023-01-19T04:18:52;21.77;;;14.60;;
9974;SDS011;5028;50.974;4.968;2023-01-19T04:21:21;21.03;;;15.07;;
9974;SDS011;5028;50.974;4.968;2023-01-19T04:23:56;22.60;;;15.10;;
9974;SDS011;5028;50.974;4.968;2023-01-19T04:26:25;19.80;;;13.97;;
9974;SDS011;5028;50.974;4.968;2023-01-19T04:29:01;25.93;;;13.57;;
9974;SDS011;5028;50.974;4.968;2023-01-19T04:31:31;22.57;;;14.63;;
9974;SDS011;5028;50.974;4.968;2023-01-19T04:34:07;18.83;;;13.93;;
9974;SDS011;5028;50.974;4.968;2023-01-19T04:36:36;21.90;;;13.53;;
9974;SDS011;5028;50.974;4.968;2023-01-19T04:39:10;17.77;;;12.10;;
9974;SDS011;5028;50.974;4.968;2023-01-19T04:41:39;18.70;;;12.60;;
9974;SDS011;5028;50.974;4.968;2023-01-19T04:44:16;19.93;;;12.23;;
9974;SDS011;5028;50.974;4.968;2023-01-19T04:46:44;15.33;;;12.20;;
9974;SDS011;5028;50.974;4.968;2023-01-19T04:49:19;14.63;;;11.33;;
9974;SDS011;5028;50.974;4.968;2023-01-19T04:51:48;19.73;;;11.77;;
9974;SDS011;5028;50.974;4.968;2023-01-19T04:54:25;15.70;;;11.60;;
9974;SDS011;5028;50.974;4.968;2023-01-19T04:56:54;17.23;;;12.90;;
9974;SDS011;5028;50.974;4.968;2023-01-19T04:59:31;16.77;;;11.90;;
9974;SDS011;5028;50.974;4.968;2023-01-19T05:01:59;16.93;;;12.37;;
9974;SDS011;5028;50.974;4.968;2023-01-19T05:04:34;17.27;;;11.97;;
9974;SDS011;5028;50.974;4.968;2023-01-19T05:07:03;21.47;;;13.20;;
9974;SDS011;5028;50.974;4.968;2023-01-19T05:09:44;17.73;;;12.60;;
9974;SDS011;5028;50.974;4.968;2023-01-19T05:12:12;16.17;;;12.80;;
9974;SDS011;5028;50.974;4.968;2023-01-19T05:14:49;17.13;;;12.77;;
9974;SDS011;5028;50.974;4.968;2023-01-19T05:17:17;19.07;;;12.77;;
9974;SDS011;5028;50.974;4.968;2023-01-19T05:19:52;21.60;;;13.67;;
9974;SDS011;5028;50.974;4.968;2023-01-19T05:22:21;20.57;;;13.07;;
9974;SDS011;5028;50.974;4.968;2023-01-19T05:24:56;17.03;;;12.23;;
9974;SDS011;5028;50.974;4.968;2023-01-19T05:27:24;17.03;;;12.47;;
9974;SDS011;5028;50.974;4.968;2023-01-19T05:30:01;24.57;;;13.60;;
9974;SDS011;5028;50.974;4.968;2023-01-19T05:32:30;20.37;;;13.03;;
9974;SDS011;5028;50.974;4.968;2023-01-19T05:35:06;18.20;;;13.17;;
9974;SDS011;5028;50.974;4.968;2023-01-19T05:37:35;17.80;;;12.93;;
9974;SDS011;5028;50.974;4.968;2023-01-19T05:40:10;21.07;;;13.37;;
9974;SDS011;5028;50.974;4.968;2023-01-19T05:42:39;21.87;;;14.03;;
9974;SDS011;5028;50.974;4.968;2023-01-19T05:45:16;19.20;;;13.43;;
9974;SDS011;5028;50.974;4.968;2023-01-19T05:47:44;20.17;;;13.90;;
9974;SDS011;5028;50.974;4.968;2023-01-19T05:50:19;20.43;;;13.97;;
9974;SDS011;5028;50.974;4.968;2023-01-19T05:52:48;19.73;;;13.77;;
9974;SDS011;5028;50.974;4.968;2023-01-19T05:55:25;24.47;;;13.90;;
9974;SDS011;5028;50.974;4.968;2023-01-19T05:57:54;21.00;;;14.27;;
9974;SDS011;5028;50.974;4.968;2023-01-19T06:00:31;22.43;;;14.30;;
9974;SDS011;5028;50.974;4.968;2023-01-19T06:03:00;20.87;;;13.80;;
9974;SDS011;5028;50.974;4.968;2023-01-19T06:05:34;20.77;;;13.30;;
9974;SDS011;5028;50.974;4.968;2023-01-19T06:08:11;23.50;;;14.93;;
9974;SDS011;5028;50.974;4.968;2023-01-19T06:10:46;22.50;;;13.97;;
9974;SDS011;5028;50.974;4.968;2023-01-19T06:13:15;23.13;;;14.70;;
9974;SDS011;5028;50.974;4.968;2023-01-19T06:15:56;19.40;;;14.23;;
9974;SDS011;5028;50.974;4.968;2023-01-19T06:18:25;22.40;;;15.67;;
9974;SDS011;5028;50.974;4.968;2023-01-19T06:21:04;19.27;;;13.83;;
9974;SDS011;5028;50.974;4.968;2023-01-19T06:23:33;21.37;;;15.63;;
9974;SDS011;5028;50.974;4.968;2023-01-19T06:26:11;22.03;;;14.47;;
9974;SDS011;5028;50.974;4.968;2023-01-19T06:28:39;19.37;;;14.50;;
9974;SDS011;5028;50.974;4.968;2023-01-19T06:31:16;22.10;;;14.83;;
9974;SDS011;5028;50.974;4.968;2023-01-19T06:33:44;24.83;;;15.87;;
9974;SDS011;5028;50.974;4.968;2023-01-19T06:36:19;21.97;;;15.47;;
9974;SDS011;5028;50.974;4.968;2023-01-19T06:38:48;27.47;;;15.80;;
9974;SDS011;5028;50.974;4.968;2023-01-19T06:41:22;28.73;;;16.23;;
9974;SDS011;5028;50.974;4.968;2023-01-19T06:43:51;25.80;;;16.03;;
9974;SDS011;5028;50.974;4.968;2023-01-19T06:46:28;20.73;;;16.33;;
9974;SDS011;5028;50.974;4.968;2023-01-19T06:48:57;24.23;;;16.27;;
9974;SDS011;5028;50.974;4.968;2023-01-19T06:51:32;24.13;;;16.03;;
9974;SDS011;5028;50.974;4.968;2023-01-19T06:54:00;21.47;;;15.20;;
9974;SDS011;5028;50.974;4.968;2023-01-19T06:56:35;25.00;;;16.40;;
9974;SDS011;5028;50.974;4.968;2023-01-19T06:59:04;29.10;;;16.90;;
9974;SDS011;5028;50.974;4.968;2023-01-19T07:01:41;25.13;;;16.67;;
9974;SDS011;5028;50.974;4.968;2023-01-19T07:04:09;26.93;;;17.23;;
9974;SDS011;5028;50.974;4.968;2023-01-19T07:06:45;22.63;;;15.90;;
9974;SDS011;5028;50.974;4.968;2023-01-19T07:09:27;24.40;;;16.67;;
9974;SDS011;5028;50.974;4.968;2023-01-19T07:12:02;23.07;;;15.50;;
9974;SDS011;5028;50.974;4.968;2023-01-19T07:14:32;29.83;;;16.70;;
9974;SDS011;5028;50.974;4.968;2023-01-19T07:17:11;27.03;;;17.03;;
9974;SDS011;5028;50.974;4.968;2023-01-19T07:19:39;26.43;;;18.90;;
9974;SDS011;5028;50.974;4.968;2023-01-19T07:22:14;26.27;;;17.20;;
9974;SDS011;5028;50.974;4.968;2023-01-19T07:24:43;24.93;;;17.37;;
9974;SDS011;5028;50.974;4.968;2023-01-19T07:27:17;29.50;;;18.17;;
9974;SDS011;5028;50.974;4.968;2023-01-19T07:29:46;29.87;;;19.20;;
9974;SDS011;5028;50.974;4.968;2023-01-19T07:32:22;27.33;;;19.27;;
9974;SDS011;5028;50.974;4.968;2023-01-19T07:34:51;34.00;;;18.87;;
9974;SDS011;5028;50.974;4.968;2023-01-19T07:37:25;29.20;;;19.20;;
9974;SDS011;5028;50.974;4.968;2023-01-19T07:39:54;24.83;;;17.70;;
9974;SDS011;5028;50.974;4.968;2023-01-19T07:42:28;25.97;;;18.93;;
9974;SDS011;5028;50.974;4.968;2023-01-19T07:44:57;28.30;;;22.03;;
9974;SDS011;5028;50.974;4.968;2023-01-19T07:47:34;28.90;;;20.50;;
9974;SDS011;5028;50.974;4.968;2023-01-19T07:50:03;26.57;;;18.67;;
9974;SDS011;5028;50.974;4.968;2023-01-19T07:52:38;29.90;;;20.37;;
9974;SDS011;5028;50.974;4.968;2023-01-19T07:55:07;30.70;;;21.20;;
9974;SDS011;5028;50.974;4.968;2023-01-19T07:57:46;29.60;;;21.17;;
9974;SDS011;5028;50.974;4.968;2023-01-19T08:00:16;30.60;;;19.70;;
9974;SDS011;5028;50.974;4.968;2023-01-19T08:02:58;29.83;;;19.97;;
9974;SDS011;5028;50.974;4.968;2023-01-19T08:05:29;29.70;;;18.37;;
9974;SDS011;5028;50.974;4.968;2023-01-19T08:08:04;30.67;;;19.00;;
9974;SDS011;5028;50.974;4.968;2023-01-19T08:10:48;29.40;;;18.57;;
9974;SDS011;5028;50.974;4.968;2023-01-19T08:13:17;32.57;;;19.73;;
9974;SDS011;5028;50.974;4.968;2023-01-19T08:15:52;32.47;;;18.73;;
9974;SDS011;5028;50.974;4.968;2023-01-19T08:18:23;27.63;;;18.23;;
9974;SDS011;5028;50.974;4.968;2023-01-19T08:20:57;27.27;;;19.37;;
9974;SDS011;5028;50.974;4.968;2023-01-19T08:23:26;27.13;;;18.83;;
9974;SDS011;5028;50.974;4.968;2023-01-19T08:26:01;28.00;;;18.53;;
9974;SDS011;5028;50.974;4.968;2023-01-19T08:28:44;28.70;;;18.17;;
9974;SDS011;5028;50.974;4.968;2023-01-19T08:31:20;30.40;;;19.13;;
9974;SDS011;5028;50.974;4.968;2023-01-19T08:33:52;28.63;;;20.50;;
9974;SDS011;5028;50.974;4.968;2023-01-19T08:36:26;27.93;;;19.53;;
9974;SDS011;5028;50.974;4.968;2023-01-19T08:38:55;26.90;;;19.03;;
9974;SDS011;5028;50.974;4.968;2023-01-19T08:41:30;31.93;;;19.50;;
9974;SDS011;5028;50.974;4.968;2023-01-19T08:44:00;30.50;;;20.17;;
9974;SDS011;5028;50.974;4.968;2023-01-19T08:46:35;24.47;;;19.53;;
9974;SDS011;5028;50.974;4.968;2023-01-19T08:49:07;26.33;;;19.33;;
9974;SDS011;5028;50.974;4.968;2023-01-19T08:51:42;29.30;;;19.67;;
9974;SDS011;5028;50.974;4.968;2023-01-19T08:54:13;30.27;;;19.63;;
9974;SDS011;5028;50.974;4.968;2023-01-19T08:56:48;29.37;;;19.03;;
9974;SDS011;5028;50.974;4.968;2023-01-19T08:59:17;25.83;;;18.67;;
9974;SDS011;5028;50.974;4.968;2023-01-19T09:01:53;30.33;;;18.43;;
9974;SDS011;5028;50.974;4.968;2023-01-19T09:04:23;35.00;;;18.50;;
9974;SDS011;5028;50.974;4.968;2023-01-19T09:07:05;27.43;;;18.57;;
9974;SDS011;5028;50.974;4.968;2023-01-19T09:09:34;29.50;;;19.03;;
9974;SDS011;5028;50.974;4.968;2023-01-19T09:12:11;30.53;;;17.63;;
9974;SDS011;5028;50.974;4.968;2023-01-19T09:14:40;28.37;;;17.47;;
9974;SDS011;5028;50.974;4.968;2023-01-19T09:17:16;29.53;;;18.17;;
9974;SDS011;5028;50.974;4.968;2023-01-19T09:19:46;27.43;;;18.03;;
9974;SDS011;5028;50.974;4.968;2023-01-19T09:22:21;26.93;;;17.83;;
9974;SDS011;5028;50.974;4.968;2023-01-19T09:24:49;25.53;;;17.10;;
9974;SDS011;5028;50.974;4.968;2023-01-19T09:27:25;21.83;;;16.80;;
9974;SDS011;5028;50.974;4.968;2023-01-19T09:29:53;26.20;;;17.73;;
9974;SDS011;5028;50.974;4.968;2023-01-19T09:32:28;27.17;;;16.37;;
9974;SDS011;5028;50.974;4.968;2023-01-19T09:34:59;24.47;;;16.07;;
9974;SDS011;5028;50.974;4.968;2023-01-19T09:37:33;24.30;;;15.30;;
9974;SDS011;5028;50.974;4.968;2023-01-19T09:40:03;27.80;;;15.43;;
9974;SDS011;5028;50.974;4.968;2023-01-19T09:42:40;22.80;;;15.33;;
9974;SDS011;5028;50.974;4.968;2023-01-19T09:45:12;22.10;;;15.37;;
9974;SDS011;5028;50.974;4.968;2023-01-19T09:47:52;21.53;;;14.77;;
9974;SDS011;5028;50.974;4.968;2023-01-19T09:50:25;25.93;;;15.37;;
9974;SDS011;5028;50.974;4.968;2023-01-19T09:53:04;20.50;;;15.03;;
9974;SDS011;5028;50.974;4.968;2023-01-19T09:55:41;24.20;;;15.30;;
9974;SDS011;5028;50.974;4.968;2023-01-19T09:58:16;23.50;;;15.30;;
9974;SDS011;5028;50.974;4.968;2023-01-19T10:00:46;21.87;;;16.03;;
9974;SDS011;5028;50.974;4.968;2023-01-19T10:03:25;20.00;;;14.60;;
9974;SDS011;5028;50.974;4.968;2023-01-19T10:05:57;22.40;;;15.47;;
9974;SDS011;5028;50.974;4.968;2023-01-19T10:08:37;22.00;;;15.80;;
9974;SDS011;5028;50.974;4.968;2023-01-19T10:11:23;21.70;;;14.70;;
9974;SDS011;5028;50.974;4.968;2023-01-19T10:14:18;24.37;;;14.80;;
9974;SDS011;5028;50.974;4.968;2023-01-19T10:16:59;23.93;;;14.93;;
9974;SDS011;5028;50.974;4.968;2023-01-19T10:19:48;22.50;;;15.33;;
9974;SDS011;5028;50.974;4.968;2023-01-19T10:22:23;20.60;;;14.97;;
9974;SDS011;5028;50.974;4.968;2023-01-19T10:25:02;24.37;;;14.40;;
9974;SDS011;5028;50.974;4.968;2023-01-19T10:27:40;19.27;;;13.83;;
9974;SDS011;5028;50.974;4.968;2023-01-19T10:30:16;23.20;;;14.20;;
9974;SDS011;5028;50.974;4.968;2023-01-19T10:32:49;21.63;;;14.83;;
9974;SDS011;5028;50.974;4.968;2023-01-19T10:35:25;25.20;;;15.00;;
9974;SDS011;5028;50.974;4.968;2023-01-19T10:37:56;21.17;;;14.73;;
9974;SDS011;5028;50.974;4.968;2023-01-19T10:40:35;21.87;;;13.83;;
9974;SDS011;5028;50.974;4.968;2023-01-19T10:46:17;21.83;;;14.30;;
9974;SDS011;5028;50.974;4.968;2023-01-19T10:48:50;20.87;;;14.07;;
9974;SDS011;5028;50.974;4.968;2023-01-19T10:51:26;21.70;;;14.40;;
9974;SDS011;5028;50.974;4.968;2023-01-19T10:53:57;26.83;;;14.90;;
9974;SDS011;5028;50.974;4.968;2023-01-19T10:56:35;21.50;;;14.17;;
9974;SDS011;5028;50.974;4.968;2023-01-19T10:59:05;24.70;;;13.93;;
9974;SDS011;5028;50.974;4.968;2023-01-19T11:02:01;20.77;;;13.50;;
9974;SDS011;5028;50.974;4.968;2023-01-19T11:04:39;17.40;;;12.93;;
9974;SDS011;5028;50.974;4.968;2023-01-19T11:07:26;19.13;;;13.50;;
9974;SDS011;5028;50.974;4.968;2023-01-19T11:10:12;18.57;;;13.27;;
9974;SDS011;5028;50.974;4.968;2023-01-19T11:12:56;19.40;;;14.03;;
9974;SDS011;5028;50.974;4.968;2023-01-19T11:15:39;17.57;;;13.30;;
9974;SDS011;5028;50.974;4.968;2023-01-19T11:18:17;20.23;;;13.40;;
9974;SDS011;5028;50.974;4.968;2023-01-19T11:20:58;16.87;;;12.17;;
9974;SDS011;5028;50.974;4.968;2023-01-19T11:23:29;19.00;;;12.57;;
9974;SDS011;5028;50.974;4.968;2023-01-19T11:26:12;16.67;;;12.37;;
9974;SDS011;5028;50.974;4.968;2023-01-19T11:28:44;19.97;;;12.93;;
9974;SDS011;5028;50.974;4.968;2023-01-19T11:31:32;17.83;;;12.60;;
9974;SDS011;5028;50.974;4.968;2023-01-19T11:34:02;19.13;;;11.93;;
9974;SDS011;5028;50.974;4.968;2023-01-19T11:36:39;19.93;;;12.73;;
9974;SDS011;5028;50.974;4.968;2023-01-19T11:39:18;17.60;;;12.17;;
9974;SDS011;5028;50.974;4.968;2023-01-19T11:41:58;19.03;;;12.10;;
9974;SDS011;5028;50.974;4.968;2023-01-19T11:44:29;16.67;;;11.17;;
9974;SDS011;5028;50.974;4.968;2023-01-19T11:47:10;19.37;;;13.43;;
9974;SDS011;5028;50.974;4.968;2023-01-19T11:49:45;18.43;;;12.47;;
9974;SDS011;5028;50.974;4.968;2023-01-19T11:52:25;19.60;;;12.73;;
9974;SDS011;5028;50.974;4.968;2023-01-19T11:54:58;17.47;;;12.63;;
9974;SDS011;5028;50.974;4.968;2023-01-19T11:57:42;18.00;;;13.00;;
9974;SDS011;5028;50.974;4.968;2023-01-19T12:00:18;17.60;;;12.60;;
9974;SDS011;5028;50.974;4.968;2023-01-19T12:02:59;24.00;;;12.40;;
9974;SDS011;5028;50.974;4.968;2023-01-19T12:05:33;16.43;;;12.23;;
9974;SDS011;5028;50.974;4.968;2023-01-19T12:08:14;23.07;;;13.33;;
9974;SDS011;5028;50.974;4.968;2023-01-19T12:10:59;17.00;;;12.63;;
9974;SDS011;5028;50.974;4.968;2023-01-19T12:13:38;18.83;;;12.17;;
9974;SDS011;5028;50.974;4.968;2023-01-19T12:16:10;20.77;;;13.27;;
9974;SDS011;5028;50.974;4.968;2023-01-19T12:18:54;22.30;;;14.67;;
9974;SDS011;5028;50.974;4.968;2023-01-19T12:21:27;22.13;;;13.60;;
9974;SDS011;5028;50.974;4.968;2023-01-19T12:24:06;18.43;;;13.17;;
9974;SDS011;5028;50.974;4.968;2023-01-19T12:26:43;18.23;;;11.93;;
9974;SDS011;5028;50.974;4.968;2023-01-19T12:29:28;18.27;;;12.93;;
9974;SDS011;5028;50.974;4.968;2023-01-19T12:32:15;21.97;;;13.30;;
9974;SDS011;5028;50.974;4.968;2023-01-19T12:34:51;18.10;;;12.53;;
9974;SDS011;5028;50.974;4.968;2023-01-19T12:37:30;20.03;;;13.23;;
9974;SDS011;5028;50.974;4.968;2023-01-19T12:40:19;21.80;;;13.37;;
9974;SDS011;5028;50.974;4.968;2023-01-19T12:42:57;20.77;;;13.47;;
9974;SDS011;5028;50.974;4.968;2023-01-19T12:45:36;20.43;;;12.93;;
9974;SDS011;5028;50.974;4.968;2023-01-19T12:48:09;21.50;;;13.60;;
9974;SDS011;5028;50.974;4.968;2023-01-19T12:50:58;19.07;;;13.33;;
9974;SDS011;5028;50.974;4.968;2023-01-19T12:53:26;18.97;;;12.93;;
9974;SDS011;5028;50.974;4.968;2023-01-19T12:56:03;18.33;;;13.03;;
9974;SDS011;5028;50.974;4.968;2023-01-19T12:58:35;17.93;;;12.43;;
9974;SDS011;5028;50.974;4.968;2023-01-19T13:01:13;22.17;;;14.37;;
9974;SDS011;5028;50.974;4.968;2023-01-19T13:03:45;19.13;;;13.67;;
9974;SDS011;5028;50.974;4.968;2023-01-19T13:09:49;21.43;;;13.33;;
9974;SDS011;5028;50.974;4.968;2023-01-19T13:12:25;20.67;;;13.30;;
9974;SDS011;5028;50.974;4.968;2023-01-19T13:18:03;25.83;;;14.03;;
9974;SDS011;5028;50.974;4.968;2023-01-19T13:20:33;20.43;;;12.90;;
9974;SDS011;5028;50.974;4.968;2023-01-19T13:23:21;20.87;;;12.73;;
9974;SDS011;5028;50.974;4.968;2023-01-19T13:25:53;19.17;;;12.37;;
9974;SDS011;5028;50.974;4.968;2023-01-19T13:28:40;18.90;;;12.83;;
9974;SDS011;5028;50.974;4.968;2023-01-19T13:31:09;25.20;;;13.00;;
9974;SDS011;5028;50.974;4.968;2023-01-19T13:33:48;19.37;;;13.10;;
9974;SDS011;5028;50.974;4.968;2023-01-19T13:36:24;18.20;;;13.47;;
9974;SDS011;5028;50.974;4.968;2023-01-19T13:39:04;21.23;;;14.07;;
9974;SDS011;5028;50.974;4.968;2023-01-19T13:41:34;20.93;;;13.10;;
9974;SDS011;5028;50.974;4.968;2023-01-19T13:44:13;19.93;;;14.03;;
9974;SDS011;5028;50.974;4.968;2023-01-19T13:46:47;21.37;;;14.47;;
9974;SDS011;5028;50.974;4.968;2023-01-19T13:49:25;19.63;;;13.83;;
9974;SDS011;5028;50.974;4.968;2023-01-19T13:52:02;19.50;;;13.30;;
9974;SDS011;5028;50.974;4.968;2023-01-19T13:54:48;20.50;;;12.60;;
9974;SDS011;5028;50.974;4.968;2023-01-19T13:57:22;19.47;;;12.97;;
9974;SDS011;5028;50.974;4.968;2023-01-19T14:00:04;18.17;;;12.07;;
9974;SDS011;5028;50.974;4.968;2023-01-19T14:02:50;17.37;;;12.20;;
9974;SDS011;5028;50.974;4.968;2023-01-19T14:05:29;17.67;;;11.83;;
9974;SDS011;5028;50.974;4.968;2023-01-19T14:08:00;17.87;;;12.50;;
9974;SDS011;5028;50.974;4.968;2023-01-19T14:10:44;20.67;;;13.47;;
9974;SDS011;5028;50.974;4.968;2023-01-19T14:13:15;19.87;;;12.10;;
9974;SDS011;5028;50.974;4.968;2023-01-19T14:15:52;17.17;;;12.20;;
9974;SDS011;5028;50.974;4.968;2023-01-19T14:18:25;17.70;;;12.20;;
9974;SDS011;5028;50.974;4.968;2023-01-19T14:21:04;17.83;;;11.67;;
9974;SDS011;5028;50.974;4.968;2023-01-19T14:23:35;15.53;;;11.27;;
9974;SDS011;5028;50.974;4.968;2023-01-19T14:29:16;19.57;;;12.63;;
9974;SDS011;5028;50.974;4.968;2023-01-19T14:32:05;18.50;;;12.33;;
9974;SDS011;5028;50.974;4.968;2023-01-19T14:34:39;19.67;;;13.67;;
9974;SDS011;5028;50.974;4.968;2023-01-19T14:37:25;17.67;;;12.50;;
9974;SDS011;5028;50.974;4.968;2023-01-19T14:39:55;21.53;;;13.40;;
9974;SDS011;5028;50.974;4.968;2023-01-19T14:42:36;17.93;;;13.43;;
9974;SDS011;5028;50.974;4.968;2023-01-19T14:45:18;17.23;;;11.33;;
9974;SDS011;5028;50.974;4.968;2023-01-19T14:47:55;17.27;;;10.50;;
9974;SDS011;5028;50.974;4.968;2023-01-19T14:50:26;17.93;;;11.10;;
9974;SDS011;5028;50.974;4.968;2023-01-19T14:53:06;17.23;;;11.00;;
9974;SDS011;5028;50.974;4.968;2023-01-19T14:55:43;17.80;;;11.93;;
9974;SDS011;5028;50.974;4.968;2023-01-19T14:58:22;21.57;;;12.00;;
9974;SDS011;5028;50.974;4.968;2023-01-19T15:00:52;17.73;;;11.53;;
9974;SDS011;5028;50.974;4.968;2023-01-19T15:03:28;14.83;;;11.20;;
9974;SDS011;5028;50.974;4.968;2023-01-19T15:06:10;15.93;;;11.23;;
9974;SDS011;5028;50.974;4.968;2023-01-19T15:08:56;15.20;;;11.80;;
9974;SDS011;5028;50.974;4.968;2023-01-19T15:11:26;16.60;;;12.00;;
9974;SDS011;5028;50.974;4.968;2023-01-19T15:14:05;19.67;;;13.97;;
9974;SDS011;5028;50.974;4.968;2023-01-19T15:16:33;21.67;;;13.63;;
9974;SDS011;5028;50.974;4.968;2023-01-19T15:19:11;21.20;;;15.20;;
9974;SDS011;5028;50.974;4.968;2023-01-19T15:21:42;18.67;;;14.63;;
9974;SDS011;5028;50.974;4.968;2023-01-19T15:24:20;24.57;;;12.77;;
9974;SDS011;5028;50.974;4.968;2023-01-19T15:26:49;18.53;;;11.40;;
9974;SDS011;5028;50.974;4.968;2023-01-19T15:29:24;15.73;;;11.47;;
9974;SDS011;5028;50.974;4.968;2023-01-19T15:31:56;15.63;;;12.03;;
9974;SDS011;5028;50.974;4.968;2023-01-19T15:34:46;16.17;;;11.30;;
9974;SDS011;5028;50.974;4.968;2023-01-19T15:37:21;16.97;;;10.83;;
9974;SDS011;5028;50.974;4.968;2023-01-19T15:39:51;16.30;;;10.90;;
9974;SDS011;5028;50.974;4.968;2023-01-19T15:42:26;16.00;;;10.90;;
9974;SDS011;5028;50.974;4.968;2023-01-19T15:44:54;15.00;;;10.53;;
9974;SDS011;5028;50.974;4.968;2023-01-19T15:47:29;14.60;;;9.70;;
9974;SDS011;5028;50.974;4.968;2023-01-19T15:49:57;14.57;;;10.47;;
9974;SDS011;5028;50.974;4.968;2023-01-19T15:52:33;16.37;;;10.90;;